createdAt,value
2023-03-26T00:00:26.582Z,2.13
2023-03-26T00:02:54.149Z,1.97
2023-03-26T00:05:24.457Z,2.27
2023-03-26T00:07:51.973Z,1.70
2023-03-26T00:10:19.517Z,1.83
2023-03-26T00:13:08.040Z,1.87
2023-03-26T00:15:37.041Z,2.47
2023-03-26T00:18:04.630Z,2.57
2023-03-26T00:20:35.061Z,2.23
2023-03-26T00:23:02.438Z,1.80
2023-03-26T00:25:29.876Z,1.67
2023-03-26T00:27:57.642Z,1.80
2023-03-26T00:35:41.443Z,1.90
2023-03-26T00:37:30.686Z,1.80
2023-03-26T00:40:17.708Z,2.23
2023-03-26T00:42:45.030Z,1.50
2023-03-26T00:45:12.508Z,2.00
2023-03-26T00:47:41.132Z,1.87
2023-03-26T00:50:15.617Z,1.80
2023-03-26T00:52:45.403Z,2.07
2023-03-26T00:55:13.482Z,2.70
2023-03-26T00:57:41.470Z,2.27
2023-03-26T01:00:17.227Z,1.73
2023-03-26T01:02:46.485Z,1.80
2023-03-26T01:05:35.877Z,1.73
2023-03-26T01:08:17.959Z,1.67
2023-03-26T01:11:17.192Z,1.70
2023-03-26T01:13:54.570Z,2.53
2023-03-26T01:16:52.506Z,1.83
2023-03-26T01:19:41.837Z,2.10
2023-03-26T01:22:28.120Z,2.23
2023-03-26T01:24:56.949Z,2.00
2023-03-26T01:27:47.275Z,1.43
2023-03-26T01:30:42.461Z,2.40
2023-03-26T01:36:48.304Z,2.03
2023-03-26T01:39:26.512Z,2.27
2023-03-26T01:42:16.376Z,2.90
2023-03-26T01:44:57.376Z,2.87
2023-03-26T01:47:25.494Z,2.27
2023-03-26T01:49:52.679Z,1.97
2023-03-26T01:52:25.370Z,3.13
2023-03-26T01:54:56.190Z,2.37
2023-03-26T01:57:31.545Z,2.00
2023-03-26T02:00:13.473Z,1.90
2023-03-26T02:03:23.186Z,2.03
2023-03-26T02:05:56.873Z,2.17
2023-03-26T02:08:36.067Z,1.57
2023-03-26T02:11:11.855Z,2.07
2023-03-26T02:13:41.499Z,1.90
2023-03-26T02:16:17.043Z,2.63
2023-03-26T02:18:46.241Z,2.27
2023-03-26T02:21:20.586Z,2.10
2023-03-26T02:23:57.858Z,2.17
2023-03-26T02:26:26.206Z,2.70
2023-03-26T02:29:06.924Z,2.33
2023-03-26T02:31:38.175Z,2.00
2023-03-26T02:34:07.101Z,1.53
2023-03-26T02:36:37.231Z,2.03
2023-03-26T02:39:05.700Z,2.00
2023-03-26T02:41:43.499Z,2.03
2023-03-26T02:44:12.568Z,2.60
2023-03-26T02:47:14.714Z,2.00
2023-03-26T02:50:12.680Z,1.77
2023-03-26T02:52:59.203Z,1.60
2023-03-26T02:55:28.218Z,1.53
2023-03-26T02:57:59.788Z,1.73
2023-03-26T03:00:41.008Z,1.87
2023-03-26T03:03:31.226Z,1.43
2023-03-26T03:06:19.906Z,1.90
2023-03-26T03:08:54.146Z,2.67
2023-03-26T03:11:43.959Z,1.33
2023-03-26T03:14:11.156Z,2.57
2023-03-26T03:16:38.925Z,1.70
2023-03-26T03:19:09.089Z,2.53
2023-03-26T03:21:40.759Z,1.00
2023-03-26T03:24:11.722Z,1.20
2023-03-26T03:26:47.833Z,2.17
2023-03-26T03:29:38.090Z,1.23
2023-03-26T03:32:24.397Z,1.27
2023-03-26T03:34:54.772Z,1.27
2023-03-26T03:37:21.926Z,1.20
2023-03-26T03:39:54.444Z,1.00
2023-03-26T03:42:24.621Z,1.30
2023-03-26T03:44:57.400Z,1.10
2023-03-26T03:47:56.171Z,1.00
2023-03-26T03:50:49.436Z,2.00
2023-03-26T03:53:26.457Z,1.60
2023-03-26T03:55:58.498Z,0.93
2023-03-26T03:58:48.694Z,2.37
2023-03-26T04:01:36.944Z,1.07
2023-03-26T04:04:24.955Z,1.57
2023-03-26T04:07:04.535Z,1.83
2023-03-26T04:09:47.134Z,1.50
2023-03-26T04:12:33.229Z,1.77
2023-03-26T04:15:22.394Z,1.63
2023-03-26T04:17:49.613Z,1.53
2023-03-26T04:20:19.357Z,1.63
2023-03-26T04:22:48.656Z,1.83
2023-03-26T04:25:18.064Z,1.50
2023-03-26T04:27:49.315Z,1.23
2023-03-26T04:30:35.100Z,1.83
2023-03-26T04:33:19.038Z,1.40
2023-03-26T04:35:48.631Z,1.93
2023-03-26T04:38:18.486Z,1.60
2023-03-26T04:40:49.917Z,1.30
2023-03-26T04:44:12.155Z,1.50
2023-03-26T04:46:53.015Z,1.13
2023-03-26T04:49:30.007Z,1.43
2023-03-26T04:51:57.258Z,2.17
2023-03-26T04:55:01.918Z,1.23
2023-03-26T04:57:38.053Z,2.20
2023-03-26T05:00:18.832Z,1.70
2023-03-26T05:02:54.453Z,2.27
2023-03-26T05:05:22.848Z,1.27
2023-03-26T05:07:50.872Z,1.10
2023-03-26T05:10:23.054Z,1.20
2023-03-26T05:12:58.123Z,1.60
2023-03-26T05:15:28.004Z,1.70
2023-03-26T05:17:58.385Z,1.80
2023-03-26T05:20:39.398Z,1.67
2023-03-26T05:23:08.740Z,1.33
2023-03-26T05:25:38.827Z,1.40
2023-03-26T05:28:13.901Z,1.10
2023-03-26T05:31:01.525Z,1.80
2023-03-26T05:33:33.638Z,1.60
2023-03-26T05:42:54.000Z,2.20
2023-03-26T05:45:37.276Z,1.53
2023-03-26T05:48:42.301Z,2.10
2023-03-26T05:51:28.367Z,1.03
2023-03-26T05:54:21.412Z,1.60
2023-03-26T05:57:07.443Z,1.03
2023-03-26T05:59:53.190Z,1.87
2023-03-26T06:02:39.368Z,1.40
2023-03-26T06:05:32.785Z,1.90
2023-03-26T06:08:13.151Z,1.60
2023-03-26T06:10:45.212Z,1.87
2023-03-26T06:13:13.908Z,1.23
2023-03-26T06:15:44.336Z,1.67
2023-03-26T06:18:44.172Z,1.10
2023-03-26T06:21:26.974Z,1.30
2023-03-26T06:27:30.170Z,1.10
2023-03-26T06:30:16.090Z,1.17
2023-03-26T06:32:53.689Z,1.57
2023-03-26T06:35:25.721Z,1.17
2023-03-26T06:37:53.483Z,1.63
2023-03-26T06:40:21.273Z,1.43
2023-03-26T06:43:16.968Z,1.10
2023-03-26T06:45:59.122Z,0.90
2023-03-26T06:48:39.757Z,1.50
2023-03-26T06:51:25.424Z,1.40
2023-03-26T06:54:13.458Z,1.17
2023-03-26T06:56:54.998Z,1.13
2023-03-26T06:59:25.065Z,1.53
2023-03-26T07:02:11.900Z,1.00
2023-03-26T07:05:17.539Z,1.23
2023-03-26T07:08:26.299Z,0.80
2023-03-26T07:11:12.482Z,1.13
2023-03-26T07:14:18.400Z,0.80
2023-03-26T07:17:04.611Z,0.60
2023-03-26T07:19:47.217Z,0.67
2023-03-26T07:22:22.470Z,0.87
2023-03-26T07:25:06.423Z,1.10
2023-03-26T07:28:28.854Z,1.20
2023-03-26T07:31:47.772Z,0.47
2023-03-26T07:34:46.945Z,1.13
2023-03-26T07:37:26.997Z,0.70
2023-03-26T07:40:39.925Z,1.73
2023-03-26T07:43:48.446Z,0.57
2023-03-26T07:46:39.498Z,1.03
2023-03-26T07:49:25.014Z,0.60
2023-03-26T07:52:26.140Z,0.50
2023-03-26T07:55:48.180Z,0.50
2023-03-26T07:58:45.477Z,0.80
2023-03-26T08:01:47.804Z,0.70
2023-03-26T08:04:38.889Z,0.77
2023-03-26T08:07:45.184Z,1.00
2023-03-26T08:11:01.744Z,0.87
2023-03-26T08:13:51.424Z,0.57
2023-03-26T08:16:33.112Z,0.87
2023-03-26T08:19:28.014Z,0.60
2023-03-26T08:22:06.528Z,0.60
2023-03-26T08:24:57.539Z,0.93
2023-03-26T08:27:51.970Z,0.50
2023-03-26T08:30:22.660Z,1.00
2023-03-26T08:32:56.660Z,0.77
2023-03-26T08:35:28.787Z,0.70
2023-03-26T08:37:56.100Z,0.90
2023-03-26T08:40:57.821Z,0.90
2023-03-26T08:43:55.416Z,0.60
2023-03-26T08:46:53.502Z,0.73
2023-03-26T08:49:49.526Z,0.80
2023-03-26T08:52:38.177Z,0.67
2023-03-26T08:55:42.304Z,0.83
2023-03-26T08:58:32.695Z,0.90
2023-03-26T09:01:21.427Z,0.60
2023-03-26T09:04:41.542Z,0.87
2023-03-26T09:07:33.572Z,0.80
2023-03-26T09:10:31.553Z,0.90
2023-03-26T09:13:23.377Z,0.60
2023-03-26T09:16:27.838Z,1.17
2023-03-26T09:19:25.878Z,0.87
2023-03-26T09:22:28.546Z,0.60
2023-03-26T09:25:10.766Z,0.73
2023-03-26T09:27:55.222Z,0.70
2023-03-26T09:30:59.836Z,1.27
2023-03-26T09:33:44.923Z,1.00
2023-03-26T09:36:20.150Z,0.80
2023-03-26T09:39:06.667Z,0.87
2023-03-26T09:45:04.270Z,0.80
2023-03-26T09:47:42.465Z,1.00
2023-03-26T09:50:35.128Z,1.03
2023-03-26T09:53:38.572Z,0.60
2023-03-26T09:56:08.052Z,0.30
2023-03-26T09:59:11.504Z,1.60
2023-03-26T10:02:45.434Z,1.13
2023-03-26T10:05:34.262Z,0.67
2023-03-26T10:08:30.248Z,0.50
2023-03-26T10:11:18.786Z,0.47
2023-03-26T10:13:53.972Z,0.97
2023-03-26T10:16:31.266Z,0.70
2023-03-26T10:19:07.778Z,0.57
2023-03-26T10:22:06.791Z,0.40
2023-03-26T10:24:59.374Z,0.80
2023-03-26T10:27:57.394Z,1.13
2023-03-26T10:30:24.101Z,0.37
2023-03-26T10:33:18.012Z,0.43
2023-03-26T10:36:08.531Z,0.60
2023-03-26T10:38:58.276Z,1.00
2023-03-26T10:41:58.724Z,0.87
2023-03-26T10:44:43.470Z,0.50
2023-03-26T10:47:32.742Z,0.93
2023-03-26T10:50:22.855Z,0.67
2023-03-26T10:52:59.511Z,0.50
2023-03-26T10:55:35.312Z,0.30
2023-03-26T10:58:25.597Z,0.30
2023-03-26T11:01:32.967Z,0.60
2023-03-26T11:04:27.098Z,0.40
2023-03-26T11:06:56.793Z,0.40
2023-03-26T11:09:23.449Z,0.40
2023-03-26T11:12:26.976Z,0.70
2023-03-26T11:15:01.146Z,0.80
2023-03-26T11:17:48.335Z,0.40
2023-03-26T11:20:34.716Z,1.53
2023-03-26T11:23:21.533Z,0.50
2023-03-26T11:25:57.488Z,0.50
2023-03-26T11:28:31.214Z,0.53
2023-03-26T11:31:16.397Z,0.50
2023-03-26T11:33:50.370Z,0.40
2023-03-26T11:36:22.152Z,0.60
2023-03-26T11:38:50.635Z,0.57
2023-03-26T11:41:24.348Z,0.47
2023-03-26T11:44:00.888Z,0.63
2023-03-26T11:46:33.141Z,0.73
2023-03-26T11:49:22.149Z,0.63
2023-03-26T11:51:49.286Z,0.60
2023-03-26T11:54:17.892Z,0.90
2023-03-26T11:57:05.435Z,0.50
2023-03-26T11:59:57.307Z,0.50
2023-03-26T12:02:25.006Z,0.80
2023-03-26T12:04:56.136Z,0.53
2023-03-26T12:07:31.856Z,0.67
2023-03-26T14:15:23.114Z,1.20
2023-03-26T14:52:13.634Z,0.90
2023-03-26T14:54:45.645Z,1.27
2023-03-26T14:57:24.127Z,0.87
2023-03-26T15:00:07.231Z,2.30
2023-03-26T15:03:02.323Z,1.70
2023-03-26T15:05:38.168Z,0.80
2023-03-26T15:08:11.403Z,1.00
2023-03-26T15:11:02.190Z,1.00
2023-03-26T15:14:02.000Z,1.23
2023-03-26T15:17:09.579Z,1.00
2023-03-26T15:19:51.447Z,1.53
2023-03-26T15:22:46.061Z,1.03
2023-03-26T15:25:15.999Z,1.17
2023-03-26T15:28:36.280Z,1.60
2023-03-26T15:31:31.112Z,1.40
2023-03-26T15:34:19.948Z,1.03
2023-03-26T15:36:51.027Z,1.20
2023-03-26T15:39:59.280Z,0.63
2023-03-26T15:43:01.548Z,1.87
2023-03-26T15:45:39.995Z,1.23
2023-03-26T15:48:12.733Z,0.67
2023-03-26T15:50:55.800Z,1.03
2023-03-26T15:53:38.932Z,0.97
2023-03-26T15:56:49.176Z,0.87
2023-03-26T15:59:23.119Z,0.70
2023-03-26T16:02:04.466Z,0.90
2023-03-26T16:04:50.134Z,1.63
2023-03-26T16:07:29.064Z,1.50
2023-03-26T16:10:00.802Z,0.67
2023-03-26T16:12:32.624Z,1.13
2023-03-26T16:15:22.870Z,1.10
2023-03-26T16:18:19.237Z,0.60
2023-03-26T16:20:51.046Z,0.70
2023-03-26T16:23:47.169Z,0.67
2023-03-26T16:29:30.540Z,2.10
2023-03-26T16:32:17.229Z,1.00
2023-03-26T16:34:55.652Z,0.90
2023-03-26T16:37:43.884Z,0.70
2023-03-26T16:40:35.336Z,1.00
2023-03-26T16:43:26.975Z,0.97
2023-03-26T16:46:26.244Z,0.73
2023-03-26T16:49:01.124Z,0.77
2023-03-26T16:52:02.402Z,0.70
2023-03-26T16:54:36.151Z,1.33
2023-03-26T16:57:24.951Z,1.43
2023-03-26T17:00:16.668Z,0.57
2023-03-26T17:02:56.874Z,1.20
2023-03-26T17:05:23.859Z,0.53
2023-03-26T17:08:01.624Z,0.77
2023-03-26T17:10:56.649Z,1.17
2023-03-26T17:13:50.884Z,0.90
2023-03-26T17:16:27.056Z,1.13
2023-03-26T17:19:18.702Z,1.00
2023-03-26T17:21:57.482Z,0.60
2023-03-26T17:24:45.290Z,0.90
2023-03-26T17:27:50.174Z,0.60
2023-03-26T17:30:23.544Z,0.80
2023-03-26T17:33:06.503Z,1.00
2023-03-26T17:35:39.571Z,1.70
2023-03-26T17:38:15.525Z,2.77
2023-03-26T17:40:58.876Z,2.00
2023-03-26T17:43:45.604Z,2.47
2023-03-26T17:46:39.391Z,1.70
2023-03-26T17:49:12.203Z,1.60
2023-03-26T17:52:17.446Z,1.47
2023-03-26T17:54:47.132Z,1.20
2023-03-26T17:57:23.632Z,1.20
2023-03-26T17:59:56.149Z,1.73
2023-03-26T18:02:43.349Z,1.27
2023-03-26T18:05:14.509Z,2.37
2023-03-26T18:07:59.639Z,1.90
2023-03-26T18:10:53.755Z,1.30
2023-03-26T18:14:03.984Z,1.00
2023-03-26T18:16:30.966Z,1.03
2023-03-26T18:19:00.505Z,1.60
2023-03-26T18:21:35.131Z,1.47
2023-03-26T18:24:04.703Z,1.20
2023-03-26T18:26:37.635Z,1.13
2023-03-26T18:29:30.613Z,2.97
2023-03-26T18:32:22.249Z,1.73
2023-03-26T18:34:54.162Z,4.27
2023-03-26T18:37:29.931Z,2.33
2023-03-26T18:40:12.684Z,4.80
2023-03-26T18:42:43.266Z,4.43
2023-03-26T18:45:27.849Z,7.40
2023-03-26T18:48:10.505Z,10.83
2023-03-26T18:50:41.600Z,3.13
2023-03-26T18:53:21.415Z,3.00
2023-03-26T18:55:50.724Z,6.23
2023-03-26T18:58:36.472Z,9.83
2023-03-26T19:01:08.704Z,3.83
2023-03-26T19:03:44.662Z,3.27
2023-03-26T19:06:14.502Z,1.73
2023-03-26T19:08:46.846Z,1.90
2023-03-26T19:11:17.448Z,2.40
2023-03-26T19:13:49.980Z,1.37
2023-03-26T19:16:24.119Z,1.80
2023-03-26T19:19:16.451Z,1.57
2023-03-26T19:21:44.208Z,2.53
2023-03-26T19:24:13.123Z,4.77
2023-03-26T19:26:58.273Z,3.43
2023-03-26T19:29:33.833Z,2.40
2023-03-26T19:32:20.289Z,2.77
2023-03-26T19:34:48.259Z,1.70
2023-03-26T19:37:20.201Z,1.17
2023-03-26T19:39:52.640Z,1.00
2023-03-26T19:42:44.144Z,1.17
2023-03-26T19:45:19.121Z,0.93
2023-03-26T19:47:57.474Z,1.33
2023-03-26T19:50:34.635Z,1.10
2023-03-26T19:53:19.141Z,1.50
2023-03-26T19:56:08.544Z,1.13
2023-03-26T19:58:37.845Z,1.07
2023-03-26T20:01:05.400Z,0.90
2023-03-26T20:04:02.083Z,0.80
2023-03-26T20:06:49.494Z,1.33
2023-03-26T20:09:16.682Z,4.13
2023-03-26T20:11:43.465Z,6.73
2023-03-26T20:14:19.990Z,5.37
2023-03-26T20:16:46.788Z,6.23
2023-03-26T20:19:15.081Z,6.27
2023-03-26T20:21:42.956Z,4.67
2023-03-26T20:24:16.017Z,4.67
2023-03-26T20:26:43.779Z,11.67
2023-03-26T20:29:11.738Z,5.37
2023-03-26T20:31:41.686Z,3.57
2023-03-26T20:34:20.888Z,4.50
2023-03-26T20:36:54.152Z,3.73
2023-03-26T20:39:22.786Z,3.93
2023-03-26T20:41:51.026Z,2.93
2023-03-26T20:44:20.160Z,2.77
2023-03-26T20:46:49.181Z,0.93
2023-03-26T20:49:35.153Z,1.13
2023-03-26T20:52:22.828Z,0.90
2023-03-26T20:54:49.572Z,1.40
2023-03-26T20:57:16.480Z,3.30
2023-03-26T20:59:43.686Z,4.60
2023-03-26T21:02:11.786Z,3.67
2023-03-26T21:04:38.903Z,2.13
2023-03-26T21:07:17.635Z,2.77
2023-03-26T21:09:49.705Z,2.10
2023-03-26T21:12:26.763Z,2.47
2023-03-26T21:14:55.956Z,2.17
2023-03-26T21:17:23.563Z,1.97
2023-03-26T21:19:50.766Z,1.10
2023-03-26T21:22:17.646Z,2.83
2023-03-26T21:25:03.547Z,1.60
2023-03-26T21:27:39.422Z,1.53
2023-03-26T21:30:16.343Z,2.20
2023-03-26T21:32:45.514Z,0.83
2023-03-26T21:35:13.701Z,1.07
2023-03-26T21:37:43.069Z,1.13
2023-03-26T21:40:29.308Z,0.93
2023-03-26T21:42:56.418Z,1.40
2023-03-26T21:45:23.664Z,0.87
2023-03-26T21:47:50.998Z,1.27
2023-03-26T21:50:21.949Z,0.70
2023-03-26T21:52:50.182Z,1.00
2023-03-26T21:55:20.104Z,1.40
2023-03-26T21:58:01.678Z,0.80
2023-03-26T22:00:43.559Z,0.80
2023-03-26T22:03:35.025Z,0.73
2023-03-26T22:06:16.139Z,0.97
2023-03-26T22:08:43.171Z,1.00
2023-03-26T22:11:12.301Z,0.73
2023-03-26T22:13:39.346Z,1.07
2023-03-26T22:16:09.102Z,0.60
2023-03-26T22:18:36.300Z,0.63
2023-03-26T22:21:03.184Z,0.87
2023-03-26T22:23:34.349Z,0.87
2023-03-26T22:26:01.272Z,0.87
2023-03-26T22:28:28.495Z,1.30
2023-03-26T22:30:55.577Z,1.10
2023-03-26T22:33:22.589Z,1.20
2023-03-26T22:35:49.449Z,0.60
2023-03-26T22:38:17.147Z,1.53
2023-03-26T22:40:43.965Z,0.90
2023-03-26T22:43:10.709Z,1.30
2023-03-26T22:45:37.541Z,1.03
2023-03-26T22:48:04.751Z,0.80
2023-03-26T22:50:32.986Z,0.70
2023-03-26T22:52:59.860Z,0.90
2023-03-26T22:55:28.633Z,0.87
2023-03-26T22:57:57.278Z,0.93
2023-03-26T23:00:26.489Z,0.70
2023-03-26T23:05:40.615Z,0.80
2023-03-26T23:08:07.872Z,0.90
2023-03-26T23:10:34.835Z,0.87
2023-03-26T23:13:01.652Z,0.63
2023-03-26T23:15:28.402Z,0.90
2023-03-26T23:17:55.407Z,0.83
2023-03-26T23:20:22.514Z,0.60
2023-03-26T23:22:49.181Z,0.70
2023-03-26T23:25:16.026Z,0.50
2023-03-26T23:27:43.169Z,0.77
2023-03-26T23:30:11.036Z,0.70
2023-03-26T23:32:38.258Z,0.97
2023-03-26T23:35:06.124Z,0.70
2023-03-26T23:37:35.029Z,0.97
2023-03-26T23:40:02.146Z,0.90
2023-03-26T23:42:29.759Z,0.60
2023-03-26T23:44:57.507Z,0.70
2023-03-26T23:47:24.530Z,0.70
2023-03-26T23:49:51.557Z,0.53
2023-03-26T23:52:18.450Z,0.97
2023-03-26T23:54:45.765Z,0.90
2023-03-26T23:57:12.790Z,0.80
2023-03-26T23:59:41.535Z,0.50
